Time;durP1;ratioP1;P1;durP2;ratioP2;P2;SDS_P1;SDS_P2;PMS_P1;PMS_P2;Temp;Humidity;BMP_temperature;BMP_pressure;BME280_temperature;BME280_humidity;BME280_pressure;Samples;Min_cycle;Max_cycle;Signal;HPM_P1;HPM_P2
2021/01/27 00:00:03;;;;;;;5.23;3.10;;;0.20;99.90;;;;;;5010926;28;20186;-78
2021/01/27 00:02:28;;;;;;;4.00;3.40;;;0.20;99.90;;;;;;5011007;28;20187;-79
2021/01/27 00:04:54;;;;;;;4.13;2.30;;;0.10;99.90;;;;;;5010163;28;20212;-79
2021/01/27 00:07:19;;;;;;;4.17;3.13;;;0.10;99.90;;;;;;5008880;28;20223;-78
2021/01/27 00:09:45;;;;;;;4.90;3.40;;;0.00;99.90;;;;;;5008120;28;20180;-77
2021/01/27 00:12:11;;;;;;;5.43;3.27;;;-0.10;99.90;;;;;;5010464;28;20248;-80
2021/01/27 00:14:36;;;;;;;3.90;3.13;;;-0.10;99.90;;;;;;5009144;28;20318;-77
2021/01/27 00:17:02;;;;;;;4.47;3.33;;;-0.10;99.90;;;;;;5010804;28;20211;-80
2021/01/27 00:19:27;;;;;;;4.90;3.07;;;-0.20;99.90;;;;;;5009821;28;20191;-79
2021/01/27 00:21:53;;;;;;;3.93;3.07;;;-0.20;99.90;;;;;;5008826;28;20171;-80
2021/01/27 00:24:18;;;;;;;4.60;2.77;;;-0.20;99.90;;;;;;5007343;28;20309;-79
2021/01/27 00:26:44;;;;;;;4.70;3.60;;;-0.20;99.90;;;;;;5008791;28;20179;-80
2021/01/27 00:29:10;;;;;;;4.37;3.33;;;-0.10;99.90;;;;;;5008690;28;20188;-79
2021/01/27 00:31:35;;;;;;;4.57;3.73;;;0.00;99.90;;;;;;5009826;28;20184;-79
2021/01/27 00:34:01;;;;;;;4.30;3.10;;;0.10;99.90;;;;;;5009768;28;20237;-79
2021/01/27 00:36:26;;;;;;;3.63;2.47;;;0.10;99.90;;;;;;5008314;28;20175;-79
2021/01/27 00:38:52;;;;;;;4.37;2.83;;;0.20;99.90;;;;;;5007802;28;20168;-80
2021/01/27 00:41:17;;;;;;;3.93;2.97;;;0.30;99.90;;;;;;5008865;28;20179;-79
2021/01/27 00:43:43;;;;;;;4.90;3.60;;;0.50;99.90;;;;;;5006837;28;20176;-79
2021/01/27 00:46:09;;;;;;;4.23;3.03;;;0.40;99.90;;;;;;5008032;28;20253;-79
2021/01/27 00:48:34;;;;;;;3.63;3.00;;;0.40;99.90;;;;;;5008263;28;20187;-80
2021/01/27 00:51:00;;;;;;;5.93;4.30;;;0.50;99.90;;;;;;5008395;28;20187;-79
2021/01/27 00:53:25;;;;;;;6.67;3.97;;;0.40;99.90;;;;;;5006347;28;20222;-79
2021/01/27 00:55:51;;;;;;;4.13;3.40;;;0.40;99.90;;;;;;5007489;28;20187;-80
2021/01/27 00:58:17;;;;;;;5.50;4.77;;;0.40;99.90;;;;;;5007181;28;20211;-79
2021/01/27 01:00:43;;;;;;;4.73;3.07;;;0.40;99.90;;;;;;5008773;28;20291;-79
2021/01/27 01:03:10;;;;;;;5.67;3.83;;;0.40;99.90;;;;;;5009412;28;20184;-80
2021/01/27 01:05:38;;;;;;;5.07;3.90;;;0.40;99.90;;;;;;5008301;28;20210;-79
2021/01/27 01:08:06;;;;;;;5.40;4.90;;;0.40;99.90;;;;;;5008259;28;20183;-79
2021/01/27 01:10:34;;;;;;;5.40;3.47;;;0.40;99.90;;;;;;5006498;28;20179;-79
2021/01/27 01:13:01;;;;;;;5.70;3.63;;;0.30;99.90;;;;;;5009396;28;20183;-80
2021/01/27 01:15:28;;;;;;;4.60;3.40;;;0.40;99.90;;;;;;5009028;28;20306;-79
2021/01/27 01:17:54;;;;;;;4.23;3.10;;;0.40;99.90;;;;;;5008383;28;20563;-80
2021/01/27 01:20:22;;;;;;;9.60;4.90;;;0.30;99.90;;;;;;5006877;28;20184;-80
2021/01/27 01:22:54;;;;;;;3.97;3.57;;;0.40;99.90;;;;;;5008862;28;20638;-79
2021/01/27 01:25:22;;;;;;;4.70;3.80;;;0.50;99.90;;;;;;5009272;28;20218;-79
2021/01/27 01:27:49;;;;;;;5.50;3.40;;;0.50;99.90;;;;;;5008442;28;20679;-79
2021/01/27 01:30:30;;;;;;;5.07;3.70;;;0.60;99.90;;;;;;5006828;28;20194;-79
2021/01/27 01:32:58;;;;;;;4.97;2.77;;;0.80;99.90;;;;;;5008727;28;20326;-79
2021/01/27 01:35:24;;;;;;;4.23;3.47;;;0.80;99.90;;;;;;5007777;28;20305;-79
2021/01/27 01:37:50;;;;;;;4.30;3.30;;;0.80;99.90;;;;;;5007061;28;20294;-79
2021/01/27 01:40:49;;;;;;;3.87;3.17;;;0.90;99.90;;;;;;5008175;28;20184;-79
2021/01/27 01:43:21;;;;;;;5.53;3.40;;;0.90;99.90;;;;;;4990084;28;20219;-80
2021/01/27 01:45:56;;;;;;;6.80;4.63;;;1.00;99.90;;;;;;5006721;28;21131;-80
2021/01/27 01:48:47;;;;;;;5.33;3.77;;;1.10;99.90;;;;;;5008061;28;20183;-79
2021/01/27 01:51:29;;;;;;;4.53;3.37;;;1.10;99.90;;;;;;5023308;28;20177;-79
2021/01/27 01:54:01;;;;;;;5.37;3.20;;;1.10;99.90;;;;;;5008411;28;20196;-80
2021/01/27 01:56:30;;;;;;;6.07;3.60;;;1.20;99.90;;;;;;5011423;28;20188;-79
2021/01/27 01:58:59;;;;;;;5.73;4.17;;;1.20;99.90;;;;;;5009968;28;20688;-80
2021/01/27 02:01:26;;;;;;;4.87;3.67;;;1.20;99.90;;;;;;5026972;22;20197;-79
2021/01/27 02:03:52;;;;;;;5.40;3.87;;;1.30;99.90;;;;;;5029199;28;20210;-79
2021/01/27 02:06:19;;;;;;;6.50;4.30;;;1.30;99.90;;;;;;5028149;28;20183;-78
2021/01/27 02:08:55;;;;;;;5.00;4.30;;;1.30;99.90;;;;;;5028258;28;20946;-78
2021/01/27 02:11:41;;;;;;;4.90;3.70;;;1.20;99.90;;;;;;5028994;28;20179;-78
2021/01/27 02:14:09;;;;;;;5.20;4.50;;;1.10;99.90;;;;;;5028418;28;20207;-78
2021/01/27 02:16:44;;;;;;;4.50;3.43;;;1.10;99.90;;;;;;5028846;28;20199;-78
2021/01/27 02:19:28;;;;;;;6.47;4.37;;;1.10;99.90;;;;;;5026241;28;20178;-78
2021/01/27 02:22:34;;;;;;;4.83;3.87;;;1.00;99.90;;;;;;5028427;28;20637;-78
2021/01/27 02:25:06;;;;;;;6.57;4.20;;;1.10;99.90;;;;;;4969882;28;20207;-79
2021/01/27 02:27:46;;;;;;;5.17;3.80;;;1.10;99.90;;;;;;4986253;28;20243;-78
2021/01/27 02:30:23;;;;;;;5.37;4.83;;;1.10;99.90;;;;;;5010713;28;20190;-78
2021/01/27 02:33:17;;;;;;;5.03;3.53;;;1.00;99.90;;;;;;5027176;28;20178;-78
2021/01/27 02:35:55;;;;;;;4.60;4.00;;;1.00;99.90;;;;;;5026786;28;20199;-78
2021/01/27 02:38:31;;;;;;;5.20;3.47;;;1.00;99.90;;;;;;5027384;28;20198;-78
2021/01/27 02:41:02;;;;;;;5.47;3.97;;;1.20;99.90;;;;;;5027678;28;20262;-78
2021/01/27 02:43:48;;;;;;;7.13;5.00;;;1.10;99.90;;;;;;5027734;28;20822;-78
2021/01/27 02:46:36;;;;;;;5.37;4.20;;;1.00;99.90;;;;;;5028285;28;20190;-78
2021/01/27 02:49:10;;;;;;;7.13;4.60;;;0.80;99.90;;;;;;5027394;28;20175;-78
2021/01/27 02:51:50;;;;;;;7.17;3.80;;;0.80;99.90;;;;;;5028475;28;20182;-78
2021/01/27 02:54:23;;;;;;;6.50;4.37;;;0.80;99.90;;;;;;5026235;28;20554;-78
2021/01/27 02:57:11;;;;;;;7.30;5.27;;;0.70;99.90;;;;;;5028434;28;20203;-79
2021/01/27 02:59:42;;;;;;;5.30;4.17;;;0.60;99.90;;;;;;5027508;28;20182;-79
2021/01/27 03:02:12;;;;;;;5.73;4.67;;;0.60;99.90;;;;;;5028003;28;20202;-79
2021/01/27 03:05:00;;;;;;;5.50;3.87;;;0.60;99.90;;;;;;5027449;28;20305;-78
2021/01/27 03:07:28;;;;;;;6.83;4.87;;;0.50;99.90;;;;;;5027308;28;20614;-80
2021/01/27 03:10:13;;;;;;;6.30;4.70;;;0.40;99.90;;;;;;5027376;28;20179;-79
2021/01/27 03:12:39;;;;;;;8.77;4.33;;;0.40;99.90;;;;;;5027741;28;20183;-77
2021/01/27 03:15:08;;;;;;;7.00;4.50;;;0.30;99.90;;;;;;5025814;28;20602;-78
2021/01/27 03:17:35;;;;;;;7.00;4.70;;;0.30;99.90;;;;;;5027467;28;20282;-79
2021/01/27 03:20:08;;;;;;;6.23;4.70;;;0.20;99.90;;;;;;5025491;28;20199;-78
2021/01/27 03:22:48;;;;;;;7.33;4.53;;;0.20;99.90;;;;;;5027070;28;20187;-77
2021/01/27 03:25:31;;;;;;;7.83;4.87;;;0.20;99.90;;;;;;5042498;28;20210;-76
2021/01/27 03:28:00;;;;;;;8.00;5.03;;;0.10;99.90;;;;;;5027650;28;20174;-79
2021/01/27 03:30:26;;;;;;;9.13;5.83;;;0.10;99.90;;;;;;5026775;28;20681;-77
2021/01/27 03:33:21;;;;;;;5.47;4.50;;;0.10;99.90;;;;;;5027742;28;20183;-77
2021/01/27 03:35:51;;;;;;;4.70;3.77;;;0.10;99.90;;;;;;5017391;28;20245;-78
2021/01/27 03:38:28;;;;;;;6.17;3.93;;;0.00;99.90;;;;;;5027577;28;20676;-78
2021/01/27 03:40:59;;;;;;;5.77;5.10;;;0.20;99.90;;;;;;5026700;28;20171;-79
2021/01/27 03:43:31;;;;;;;6.90;4.13;;;0.20;99.90;;;;;;5025435;28;20644;-79
2021/01/27 03:46:13;;;;;;;6.30;4.70;;;0.20;99.90;;;;;;5026010;28;20228;-77
2021/01/27 03:48:45;;;;;;;8.73;6.03;;;0.10;99.90;;;;;;5025969;28;20550;-79
2021/01/27 03:51:12;;;;;;;6.33;4.20;;;0.10;99.90;;;;;;5041292;28;20194;-78
2021/01/27 03:53:40;;;;;;;8.40;5.27;;;0.00;99.90;;;;;;5041487;28;20298;-77
2021/01/27 03:56:31;;;;;;;6.30;5.13;;;0.00;99.90;;;;;;5027047;28;20237;-78
2021/01/27 03:58:56;;;;;;;5.57;3.50;;;0.10;99.90;;;;;;5024568;28;20183;-79
2021/01/27 04:01:23;;;;;;;5.27;3.77;;;0.10;99.90;;;;;;5025120;28;20189;-77
2021/01/27 04:03:53;;;;;;;5.87;4.47;;;0.10;99.90;;;;;;5025990;28;20209;-78
2021/01/27 04:06:19;;;;;;;6.43;4.63;;;0.10;99.90;;;;;;5026174;28;20256;-79
2021/01/27 04:08:46;;;;;;;6.63;4.80;;;0.00;99.90;;;;;;5026611;28;20233;-78
2021/01/27 04:11:12;;;;;;;8.20;4.50;;;0.00;99.90;;;;;;5027058;28;20178;-77
2021/01/27 04:13:39;;;;;;;6.03;4.90;;;0.00;99.90;;;;;;5026993;28;20252;-78
2021/01/27 04:16:05;;;;;;;8.27;5.03;;;-0.10;99.90;;;;;;5025541;28;20182;-78
2021/01/27 04:18:31;;;;;;;4.33;3.67;;;-0.10;99.90;;;;;;5024074;28;20859;-77
2021/01/27 04:20:57;;;;;;;5.43;4.00;;;-0.10;99.90;;;;;;5025480;28;20175;-77
2021/01/27 04:23:23;;;;;;;5.83;3.53;;;-0.10;99.90;;;;;;5024588;28;20186;-77
2021/01/27 04:25:48;;;;;;;4.97;4.43;;;-0.10;99.90;;;;;;5026320;28;20546;-76
2021/01/27 04:28:14;;;;;;;8.90;4.90;;;-0.20;99.90;;;;;;5024630;28;20564;-76
2021/01/27 04:30:40;;;;;;;6.77;4.57;;;-0.20;99.90;;;;;;5025742;28;20187;-76
2021/01/27 04:33:10;;;;;;;4.93;3.53;;;-0.30;99.90;;;;;;5026169;28;20187;-77
2021/01/27 04:35:37;;;;;;;3.87;3.30;;;-0.30;99.90;;;;;;5024234;28;20214;-77
2021/01/27 04:38:04;;;;;;;5.10;3.47;;;-0.20;99.90;;;;;;5023907;28;20317;-77
2021/01/27 04:40:36;;;;;;;6.33;4.87;;;-0.30;99.90;;;;;;5023556;28;20167;-78
2021/01/27 04:43:04;;;;;;;7.90;4.27;;;-0.30;99.90;;;;;;5041083;28;20182;-77
2021/01/27 04:45:30;;;;;;;5.23;3.67;;;-0.30;99.90;;;;;;5025981;28;20222;-80
2021/01/27 04:48:31;;;;;;;4.17;3.30;;;-0.30;99.90;;;;;;5026457;28;20211;-77
2021/01/27 04:51:00;;;;;;;4.47;3.47;;;-0.30;99.90;;;;;;4970771;28;20699;-77
2021/01/27 04:53:46;;;;;;;6.00;4.60;;;-0.30;99.90;;;;;;5026043;28;20183;-77
2021/01/27 04:56:33;;;;;;;4.57;3.53;;;-0.30;99.90;;;;;;5025888;28;20210;-78
2021/01/27 04:59:12;;;;;;;6.17;3.93;;;-0.20;99.90;;;;;;5025344;28;20266;-78
2021/01/27 05:01:58;;;;;;;5.10;4.37;;;-0.20;99.90;;;;;;5025475;28;20191;-78
2021/01/27 05:04:48;;;;;;;5.23;4.27;;;-0.20;99.90;;;;;;5025841;28;20229;-78
2021/01/27 05:07:20;;;;;;;6.43;4.67;;;-0.10;99.90;;;;;;5025861;28;20640;-76
2021/01/27 05:09:52;;;;;;;6.40;4.40;;;0.00;99.90;;;;;;5024387;28;20175;-77
2021/01/27 05:12:18;;;;;;;6.10;4.60;;;0.00;99.90;;;;;;5025722;28;20174;-77
2021/01/27 05:14:47;;;;;;;7.17;4.80;;;0.00;99.90;;;;;;5025173;28;20690;-77
2021/01/27 05:17:17;;;;;;;5.63;4.13;;;0.10;99.90;;;;;;5024789;28;20695;-76
2021/01/27 05:19:43;;;;;;;6.63;4.53;;;0.10;99.90;;;;;;5024079;28;20675;-77
2021/01/27 05:22:11;;;;;;;5.97;4.53;;;0.10;99.90;;;;;;5024530;28;20183;-77
2021/01/27 05:24:37;;;;;;;7.93;4.73;;;0.10;99.90;;;;;;5024674;28;20317;-77
2021/01/27 05:27:07;;;;;;;7.43;5.13;;;0.10;99.90;;;;;;5025928;28;20262;-77
2021/01/27 05:29:43;;;;;;;5.03;4.13;;;0.20;99.90;;;;;;5024827;28;20195;-77
2021/01/27 05:32:12;;;;;;;6.63;4.37;;;0.10;99.90;;;;;;5027873;28;20744;-77
2021/01/27 05:34:44;;;;;;;6.70;5.10;;;0.10;99.90;;;;;;5028575;28;20214;-77
2021/01/27 05:37:18;;;;;;;8.27;5.43;;;0.00;99.90;;;;;;5027986;28;20207;-77
2021/01/27 05:39:46;;;;;;;6.00;4.03;;;0.00;99.90;;;;;;5028754;28;20267;-76
2021/01/27 05:42:22;;;;;;;6.67;4.73;;;0.00;99.90;;;;;;5029512;28;20587;-77
2021/01/27 05:44:51;;;;;;;5.67;4.43;;;0.10;99.90;;;;;;5028756;28;20569;-76
2021/01/27 05:47:35;;;;;;;5.40;4.27;;;0.10;99.90;;;;;;5029335;28;20183;-76
2021/01/27 05:50:21;;;;;;;6.17;4.67;;;0.10;99.90;;;;;;5027202;28;20185;-77
2021/01/27 05:52:47;;;;;;;3.87;3.13;;;0.20;99.90;;;;;;5017577;28;20199;-77
2021/01/27 05:55:13;;;;;;;6.03;4.17;;;0.20;99.90;;;;;;5029015;28;20214;-78
2021/01/27 05:57:41;;;;;;;5.80;3.43;;;0.20;99.90;;;;;;5027783;28;20227;-78
2021/01/27 06:00:13;;;;;;;4.47;3.77;;;0.20;99.90;;;;;;5027115;28;20237;-77
2021/01/27 06:02:41;;;;;;;4.67;3.67;;;0.20;99.90;;;;;;5029229;28;20264;-78
2021/01/27 06:05:08;;;;;;;4.60;3.77;;;0.20;99.90;;;;;;5028817;28;20199;-79
2021/01/27 06:07:35;;;;;;;5.00;3.70;;;0.20;99.90;;;;;;5043553;28;20297;-77
2021/01/27 06:10:28;;;;;;;4.40;3.77;;;0.20;99.90;;;;;;5026442;28;20551;-76
2021/01/27 06:12:53;;;;;;;4.73;3.40;;;0.20;99.90;;;;;;5028830;28;20210;-76
2021/01/27 06:15:29;;;;;;;4.53;3.63;;;0.30;99.90;;;;;;5028645;28;20253;-76
2021/01/27 06:17:55;;;;;;;4.03;3.30;;;0.20;99.90;;;;;;5028651;28;20293;-75
2021/01/27 06:20:33;;;;;;;4.40;3.33;;;0.30;99.90;;;;;;5027460;28;20262;-77
2021/01/27 06:23:23;;;;;;;5.47;2.90;;;0.40;99.90;;;;;;5027779;28;20229;-78
2021/01/27 06:25:52;;;;;;;6.27;3.63;;;0.40;99.90;;;;;;5027978;28;20208;-78
2021/01/27 06:28:20;;;;;;;3.30;2.77;;;0.40;99.90;;;;;;5028702;28;20179;-76
2021/01/27 06:30:56;;;;;;;5.47;3.63;;;0.40;99.90;;;;;;5026774;28;20187;-76
2021/01/27 06:34:01;;;;;;;4.30;3.00;;;0.40;99.90;;;;;;5025964;28;20178;-76
2021/01/27 06:36:45;;;;;;;4.27;3.57;;;0.40;99.90;;;;;;5027365;28;20834;-77
2021/01/27 06:39:48;;;;;;;3.60;3.23;;;0.40;99.90;;;;;;5026590;28;20179;-78
2021/01/27 06:42:37;;;;;;;9.00;4.17;;;0.50;99.90;;;;;;5025928;28;20269;-79
2021/01/27 06:45:34;;;;;;;3.70;3.20;;;0.70;99.90;;;;;;5042741;28;20687;-78
2021/01/27 06:48:25;;;;;;;3.10;2.60;;;0.60;99.90;;;;;;5026467;28;20556;-77
2021/01/27 06:50:58;;;;;;;3.77;2.47;;;0.80;99.90;;;;;;5041746;28;20179;-77
2021/01/27 06:54:05;;;;;;;3.80;3.10;;;0.80;99.90;;;;;;5025936;28;20261;-77
2021/01/27 06:56:52;;;;;;;3.70;3.10;;;0.70;99.90;;;;;;5027359;28;20182;-77
2021/01/27 06:59:40;;;;;;;4.97;3.67;;;0.70;99.90;;;;;;5025966;28;20272;-76
2021/01/27 07:02:24;;;;;;;3.73;3.20;;;0.70;99.90;;;;;;5027768;28;20376;-77
2021/01/27 07:04:56;;;;;;;3.97;3.00;;;0.90;99.90;;;;;;5026143;28;20260;-76
2021/01/27 07:07:58;;;;;;;3.83;3.07;;;0.90;99.90;;;;;;5027235;28;20266;-79
2021/01/27 07:10:30;;;;;;;3.80;3.13;;;0.90;99.90;;;;;;5027356;28;20178;-76
2021/01/27 07:13:19;;;;;;;4.00;2.93;;;0.80;99.90;;;;;;5043356;28;20656;-78
2021/01/27 07:16:09;;;;;;;3.13;2.83;;;0.70;99.90;;;;;;5022815;28;20206;-79
2021/01/27 07:18:53;;;;;;;2.90;2.63;;;0.70;99.90;;;;;;5026117;28;20210;-77
2021/01/27 07:21:29;;;;;;;3.50;2.97;;;0.70;99.90;;;;;;5026880;28;20197;-78
2021/01/27 07:24:07;;;;;;;3.27;2.40;;;0.80;99.90;;;;;;5026118;28;20205;-77
2021/01/27 07:26:38;;;;;;;2.73;2.17;;;0.70;99.90;;;;;;5026314;28;20186;-79
2021/01/27 07:29:10;;;;;;;3.60;2.53;;;0.70;99.90;;;;;;5027343;28;20638;-76
2021/01/27 07:31:44;;;;;;;3.30;2.83;;;0.80;99.90;;;;;;5027839;28;20179;-78
2021/01/27 07:34:14;;;;;;;2.97;2.20;;;1.00;99.90;;;;;;5027505;28;20676;-77
2021/01/27 07:37:00;;;;;;;2.93;2.50;;;0.90;99.90;;;;;;5027433;28;20186;-78
2021/01/27 07:39:51;;;;;;;4.33;2.97;;;1.00;99.90;;;;;;5026801;28;20550;-78
2021/01/27 07:42:24;;;;;;;4.10;2.47;;;0.90;99.90;;;;;;5027447;28;20203;-78
2021/01/27 07:44:56;;;;;;;4.07;3.50;;;0.80;99.90;;;;;;5026825;28;20834;-77
2021/01/27 07:47:36;;;;;;;3.87;3.37;;;0.80;99.90;;;;;;5027387;28;20191;-78
2021/01/27 07:50:03;;;;;;;4.77;3.03;;;0.80;99.90;;;;;;5023884;28;20183;-78
2021/01/27 07:52:33;;;;;;;3.40;2.43;;;0.80;99.90;;;;;;5024257;28;20179;-77
2021/01/27 07:55:17;;;;;;;4.83;2.10;;;0.80;99.90;;;;;;5025979;28;20561;-77
2021/01/27 07:58:10;;;;;;;3.43;2.47;;;0.80;99.90;;;;;;5025332;28;20195;-79
2021/01/27 08:00:56;;;;;;;1.73;1.47;;;0.80;99.90;;;;;;5024733;28;20548;-79
2021/01/27 08:03:26;;;;;;;3.13;2.17;;;0.90;99.90;;;;;;5026117;28;20691;-79
2021/01/27 08:05:59;;;;;;;3.07;2.30;;;0.90;99.90;;;;;;5026165;28;20240;-80
2021/01/27 08:08:25;;;;;;;3.03;2.07;;;0.90;99.90;;;;;;5023440;28;20223;-78
2021/01/27 08:10:52;;;;;;;2.70;2.27;;;1.00;99.90;;;;;;5025019;28;20320;-80
2021/01/27 08:13:27;;;;;;;1.90;1.70;;;1.00;99.90;;;;;;5024988;28;20210;-79
2021/01/27 08:16:06;;;;;;;3.80;2.30;;;1.00;99.90;;;;;;5025288;28;20209;-81
2021/01/27 08:18:32;;;;;;;2.33;2.13;;;1.10;99.90;;;;;;5026166;28;20202;-78
2021/01/27 08:21:27;;;;;;;2.53;2.33;;;1.10;99.90;;;;;;5024797;28;20182;-77
2021/01/27 08:23:54;;;;;;;2.93;2.23;;;1.20;99.90;;;;;;5040692;28;20226;-79
2021/01/27 08:26:41;;;;;;;3.07;2.17;;;1.30;99.90;;;;;;5023932;28;20555;-78
2021/01/27 08:29:09;;;;;;;3.40;2.03;;;1.30;99.90;;;;;;5024689;28;20297;-78
2021/01/27 08:31:35;;;;;;;3.03;2.03;;;1.40;99.90;;;;;;5024569;28;20279;-76
2021/01/27 08:34:02;;;;;;;3.03;1.97;;;1.40;99.90;;;;;;5025125;28;20230;-79
2021/01/27 08:36:31;;;;;;;3.33;1.90;;;1.40;99.90;;;;;;5025329;28;20235;-78
2021/01/27 08:38:56;;;;;;;2.43;1.90;;;1.50;99.90;;;;;;5022767;28;20680;-77
2021/01/27 08:41:56;;;;;;;2.97;2.57;;;1.60;99.90;;;;;;5024403;28;20180;-78
2021/01/27 08:44:22;;;;;;;3.13;1.80;;;1.70;99.90;;;;;;5004565;28;21009;-77
2021/01/27 08:47:08;;;;;;;2.27;1.60;;;1.80;99.90;;;;;;5023678;28;20232;-78
2021/01/27 08:49:47;;;;;;;1.77;1.63;;;1.80;99.90;;;;;;5025457;28;20202;-80
2021/01/27 08:52:12;;;;;;;2.10;1.83;;;1.80;99.90;;;;;;5024223;28;20201;-77
2021/01/27 08:54:41;;;;;;;2.63;2.20;;;1.90;99.90;;;;;;5024081;28;20613;-78
2021/01/27 08:57:26;;;;;;;2.63;1.83;;;2.00;99.90;;;;;;5025348;28;20222;-79
2021/01/27 09:00:02;;;;;;;2.03;1.83;;;2.00;99.90;;;;;;5025260;28;20258;-78
2021/01/27 09:02:42;;;;;;;1.73;1.63;;;2.00;99.90;;;;;;5025927;28;20890;-79
2021/01/27 09:05:11;;;;;;;2.07;1.73;;;2.00;99.90;;;;;;5040170;28;20240;-80
2021/01/27 09:07:49;;;;;;;2.67;1.90;;;2.10;99.90;;;;;;5025138;28;20190;-77
2021/01/27 09:10:16;;;;;;;3.77;1.50;;;2.10;99.90;;;;;;5021327;28;21028;-79
2021/01/27 09:12:45;;;;;;;1.60;1.50;;;2.10;99.90;;;;;;5025980;28;20677;-80
2021/01/27 09:15:12;;;;;;;2.87;1.90;;;2.20;99.90;;;;;;5024952;28;20248;-78
2021/01/27 09:17:37;;;;;;;2.63;1.83;;;2.20;99.90;;;;;;5023993;28;20301;-80
2021/01/27 09:20:05;;;;;;;1.47;1.37;;;2.30;99.90;;;;;;5021551;28;20221;-79
2021/01/27 09:22:31;;;;;;;2.13;1.73;;;2.30;99.90;;;;;;5024552;28;20179;-79
2021/01/27 09:24:59;;;;;;;6.13;4.00;;;2.30;99.90;;;;;;5024124;28;20206;-79
2021/01/27 09:27:28;;;;;;;2.90;2.47;;;2.30;99.90;;;;;;5024482;28;20183;-80
2021/01/27 09:29:59;;;;;;;2.30;2.10;;;2.40;99.90;;;;;;5024820;28;20332;-80
2021/01/27 09:32:25;;;;;;;2.03;1.83;;;2.50;99.90;;;;;;5024551;28;20187;-80
2021/01/27 09:34:51;;;;;;;2.07;1.63;;;2.50;99.90;;;;;;5023858;28;20239;-79
2021/01/27 09:37:21;;;;;;;3.83;2.60;;;2.60;99.90;;;;;;5024585;28;20269;-79
2021/01/27 09:40:09;;;;;;;1.63;1.53;;;2.70;99.90;;;;;;5023920;28;20183;-76
2021/01/27 09:42:35;;;;;;;2.83;1.60;;;2.70;99.90;;;;;;5024430;28;20202;-78
2021/01/27 09:45:14;;;;;;;3.13;2.13;;;2.70;99.90;;;;;;5021098;28;20313;-77
2021/01/27 09:47:43;;;;;;;3.23;2.50;;;2.80;99.90;;;;;;5023234;28;20660;-79
2021/01/27 09:50:10;;;;;;;2.83;2.40;;;2.80;99.90;;;;;;5023394;28;20217;-78
2021/01/27 09:52:41;;;;;;;2.50;2.10;;;2.80;99.90;;;;;;5022444;28;20175;-78
2021/01/27 09:55:17;;;;;;;3.20;2.77;;;2.90;99.90;;;;;;5021818;28;20622;-77
2021/01/27 09:57:44;;;;;;;1.80;1.50;;;3.10;99.90;;;;;;5038877;28;20931;-77
2021/01/27 10:00:21;;;;;;;2.10;1.87;;;3.20;99.90;;;;;;5023490;28;20190;-77
2021/01/27 10:02:47;;;;;;;2.63;2.13;;;3.20;99.90;;;;;;5022379;28;20198;-78
2021/01/27 10:05:37;;;;;;;2.47;1.67;;;3.10;99.90;;;;;;5023388;28;20625;-77
2021/01/27 10:08:21;;;;;;;1.30;1.20;;;3.30;99.90;;;;;;5022968;28;20190;-76
2021/01/27 10:11:05;;;;;;;2.00;1.30;;;3.40;99.90;;;;;;5024518;28;20190;-76
2021/01/27 10:13:32;;;;;;;1.30;1.20;;;3.40;99.90;;;;;;5024042;28;20190;-78
2021/01/27 10:16:13;;;;;;;1.17;1.07;;;3.50;99.90;;;;;;5025878;28;20838;-78
2021/01/27 10:18:41;;;;;;;7.20;4.67;;;3.60;99.90;;;;;;5043129;28;20242;-79
2021/01/27 10:21:10;;;;;;;3.40;1.90;;;3.60;99.90;;;;;;5043135;28;20183;-79
2021/01/27 10:23:42;;;;;;;0.80;0.80;;;3.80;99.90;;;;;;5027097;28;20269;-78
2021/01/27 10:26:29;;;;;;;1.13;0.90;;;3.80;99.90;;;;;;5028457;28;20187;-80
2021/01/27 10:29:16;;;;;;;1.00;0.90;;;3.80;99.90;;;;;;5027708;28;20240;-75
2021/01/27 10:31:44;;;;;;;2.57;2.03;;;3.80;99.90;;;;;;5029217;28;20751;-79
2021/01/27 10:34:10;;;;;;;4.07;2.57;;;3.80;99.90;;;;;;5029077;28;20215;-79
2021/01/27 10:36:39;;;;;;;2.77;1.57;;;3.70;99.90;;;;;;5028858;28;20186;-77
2021/01/27 10:39:29;;;;;;;2.30;1.57;;;3.70;99.90;;;;;;5027383;28;20258;-77
2021/01/27 10:42:15;;;;;;;1.73;1.40;;;3.70;99.90;;;;;;5044070;28;20195;-77
2021/01/27 10:44:42;;;;;;;1.57;1.47;;;3.80;99.90;;;;;;5016628;28;20207;-79
2021/01/27 10:47:08;;;;;;;2.23;2.03;;;3.80;99.90;;;;;;5022169;28;20198;-76
2021/01/27 10:49:47;;;;;;;1.10;1.00;;;3.80;99.90;;;;;;5025149;28;20197;-78
2021/01/27 10:52:29;;;;;;;1.50;1.40;;;3.80;99.90;;;;;;5024848;28;20819;-75
2021/01/27 10:54:57;;;;;;;1.63;1.37;;;3.80;99.90;;;;;;5024377;28;20215;-77
2021/01/27 10:57:23;;;;;;;1.27;1.10;;;3.80;99.90;;;;;;5026009;28;20206;-78
2021/01/27 10:59:49;;;;;;;1.47;1.27;;;3.80;99.90;;;;;;5024655;28;20179;-77
2021/01/27 11:02:14;;;;;;;2.13;1.37;;;3.80;99.90;;;;;;5027168;28;20608;-78
2021/01/27 11:04:40;;;;;;;0.60;0.60;;;3.90;99.90;;;;;;5025809;28;20226;-76
2021/01/27 11:07:05;;;;;;;4.50;3.07;;;3.90;99.90;;;;;;5021842;28;20187;-77
2021/01/27 11:09:31;;;;;;;0.80;0.80;;;3.80;99.90;;;;;;5020421;28;20182;-77
2021/01/27 11:11:57;;;;;;;0.80;0.73;;;3.70;99.90;;;;;;5025383;28;20206;-77
2021/01/27 11:14:24;;;;;;;0.93;0.87;;;3.70;99.90;;;;;;5026506;28;20233;-78
2021/01/27 11:16:49;;;;;;;0.93;0.70;;;3.70;99.90;;;;;;5026503;28;20274;-77
2021/01/27 11:19:15;;;;;;;0.43;0.43;;;3.60;99.90;;;;;;5024971;28;20704;-77
2021/01/27 11:21:41;;;;;;;0.60;0.53;;;3.70;99.90;;;;;;5025350;28;20182;-77
2021/01/27 11:24:07;;;;;;;0.47;0.47;;;3.70;99.90;;;;;;5025837;28;20582;-77
2021/01/27 11:26:33;;;;;;;0.40;0.40;;;3.80;99.90;;;;;;5024084;28;20274;-77
2021/01/27 11:28:59;;;;;;;0.40;0.40;;;3.70;99.90;;;;;;5024523;28;20218;-77
2021/01/27 11:31:27;;;;;;;0.60;0.50;;;3.60;99.90;;;;;;5024375;28;20225;-77
2021/01/27 11:33:53;;;;;;;0.53;0.50;;;3.80;99.90;;;;;;5025699;28;20234;-77
2021/01/27 11:36:21;;;;;;;0.90;0.70;;;3.90;99.90;;;;;;5024442;28;20222;-77
2021/01/27 11:38:47;;;;;;;0.30;0.30;;;4.00;99.90;;;;;;5025910;28;20206;-77
2021/01/27 11:41:13;;;;;;;0.50;0.50;;;4.20;99.90;;;;;;5026104;28;20278;-77
2021/01/27 11:43:42;;;;;;;0.37;0.37;;;4.20;99.90;;;;;;5026157;28;20206;-77
2021/01/27 11:46:12;;;;;;;0.40;0.40;;;4.30;99.90;;;;;;5026433;28;20171;-78
2021/01/27 11:48:38;;;;;;;1.77;0.60;;;4.30;99.90;;;;;;5025162;28;20691;-76
2021/01/27 11:51:05;;;;;;;0.40;0.40;;;4.30;99.90;;;;;;5023169;28;20278;-76
2021/01/27 11:53:31;;;;;;;0.70;0.70;;;4.40;99.90;;;;;;5025163;28;20217;-77
2021/01/27 11:55:57;;;;;;;1.17;0.90;;;4.30;99.90;;;;;;5022762;28;20664;-80
2021/01/27 11:58:23;;;;;;;3.23;2.20;;;4.30;99.90;;;;;;5019185;28;20214;-76
2021/01/27 12:00:52;;;;;;;1.73;1.20;;;4.20;99.90;;;;;;5024385;28;20285;-77
2021/01/27 12:03:18;;;;;;;2.13;1.80;;;4.30;99.90;;;;;;5026012;28;20199;-77
2021/01/27 12:05:44;;;;;;;1.20;1.00;;;4.40;99.90;;;;;;5027004;28;20199;-77
2021/01/27 12:08:10;;;;;;;1.33;1.23;;;4.40;99.90;;;;;;5024187;28;20608;-77
2021/01/27 12:10:37;;;;;;;0.77;0.77;;;4.40;99.90;;;;;;5026967;28;20183;-78
2021/01/27 12:13:03;;;;;;;0.67;0.60;;;4.30;99.90;;;;;;5026860;28;20206;-78
2021/01/27 12:15:29;;;;;;;0.67;0.60;;;4.30;99.90;;;;;;5026098;28;20203;-78
2021/01/27 12:17:55;;;;;;;0.70;0.70;;;4.20;99.90;;;;;;5026862;28;20201;-78
2021/01/27 12:20:21;;;;;;;0.50;0.50;;;4.20;99.90;;;;;;5025460;28;20191;-79
2021/01/27 12:22:47;;;;;;;1.13;0.60;;;4.10;99.90;;;;;;5027859;28;20236;-79
2021/01/27 12:25:14;;;;;;;0.93;0.83;;;4.10;99.90;;;;;;5027290;28;20709;-77
2021/01/27 12:27:39;;;;;;;1.93;0.80;;;4.10;99.90;;;;;;5027893;28;20254;-79
2021/01/27 12:30:07;;;;;;;0.80;0.80;;;4.10;99.90;;;;;;5026476;28;20270;-79
2021/01/27 12:32:33;;;;;;;1.07;0.97;;;4.30;99.90;;;;;;5027244;28;20183;-78
2021/01/27 12:34:58;;;;;;;1.07;0.87;;;4.40;99.90;;;;;;5026612;28;20226;-79
2021/01/27 12:37:24;;;;;;;0.77;0.70;;;4.50;99.90;;;;;;5026551;28;20234;-79
2021/01/27 12:39:51;;;;;;;0.90;0.70;;;4.50;99.90;;;;;;5026706;28;20277;-79
2021/01/27 12:42:17;;;;;;;0.70;0.53;;;4.30;99.90;;;;;;5028121;28;20175;-78
2021/01/27 12:44:46;;;;;;;0.73;0.73;;;4.20;99.90;;;;;;5026932;28;20205;-79
2021/01/27 12:47:12;;;;;;;0.80;0.63;;;4.20;99.90;;;;;;5026911;28;20220;-78
2021/01/27 12:49:39;;;;;;;1.30;1.00;;;4.20;99.90;;;;;;5040708;28;20186;-79
2021/01/27 12:52:06;;;;;;;0.93;0.70;;;4.30;99.90;;;;;;5025456;28;20217;-79
2021/01/27 12:54:31;;;;;;;0.80;0.60;;;4.30;99.90;;;;;;5026192;28;20609;-79
2021/01/27 12:56:57;;;;;;;1.27;0.83;;;4.10;99.90;;;;;;5025688;28;20175;-79
2021/01/27 12:59:23;;;;;;;1.13;0.80;;;4.10;99.90;;;;;;5023296;28;20235;-78
2021/01/27 13:01:49;;;;;;;0.70;0.70;;;3.90;99.90;;;;;;5025546;28;20684;-78
2021/01/27 13:04:15;;;;;;;0.87;0.80;;;3.70;99.90;;;;;;5025575;28;20313;-77
2021/01/27 13:06:40;;;;;;;0.67;0.67;;;3.60;99.90;;;;;;5023679;28;20217;-78
2021/01/27 13:09:06;;;;;;;1.90;0.63;;;3.40;99.90;;;;;;5024440;28;20194;-79
2021/01/27 13:11:32;;;;;;;0.60;0.60;;;3.30;99.90;;;;;;5026755;28;20278;-78
2021/01/27 13:13:57;;;;;;;0.70;0.70;;;3.20;99.90;;;;;;5026292;28;20217;-78
2021/01/27 13:16:23;;;;;;;0.73;0.70;;;3.00;99.90;;;;;;5025446;28;20190;-78
2021/01/27 13:18:48;;;;;;;0.67;0.67;;;3.00;99.90;;;;;;5025328;28;20871;-77
2021/01/27 13:21:14;;;;;;;0.70;0.60;;;3.10;99.90;;;;;;5026543;28;20293;-79